sensor_id;sensor_type;location;lat;lon;timestamp;pressure;altitude;pressure_sealevel;temperature;humidity
65010;BME280;51556;50.002;22.014;2023-07-20T00:01:28;98430.27;;;19.51;70.48
65010;BME280;51556;50.002;22.014;2023-07-20T00:03:53;98432.27;;;19.46;70.52
65010;BME280;51556;50.002;22.014;2023-07-20T00:06:22;98434.73;;;19.44;70.86
65010;BME280;51556;50.002;22.014;2023-07-20T00:08:47;98432.36;;;19.43;70.95
65010;BME280;51556;50.002;22.014;2023-07-20T00:11:13;98438.18;;;19.43;71.11
65010;BME280;51556;50.002;22.014;2023-07-20T00:13:39;98435.09;;;19.44;71.12
65010;BME280;51556;50.002;22.014;2023-07-20T00:16:05;98437.68;;;19.40;71.33
65010;BME280;51556;50.002;22.014;2023-07-20T00:18:30;98433.58;;;19.35;71.30
65010;BME280;51556;50.002;22.014;2023-07-20T00:20:56;98431.33;;;19.30;71.40
65010;BME280;51556;50.002;22.014;2023-07-20T00:23:21;98422.27;;;19.27;71.51
65010;BME280;51556;50.002;22.014;2023-07-20T00:25:48;98426.98;;;19.24;71.49
65010;BME280;51556;50.002;22.014;2023-07-20T00:28:14;98426.84;;;19.23;71.57
65010;BME280;51556;50.002;22.014;2023-07-20T00:30:40;98431.57;;;19.20;71.64
65010;BME280;51556;50.002;22.014;2023-07-20T00:33:09;98431.36;;;19.18;71.69
65010;BME280;51556;50.002;22.014;2023-07-20T00:35:35;98427.55;;;19.21;71.73
65010;BME280;51556;50.002;22.014;2023-07-20T00:38:00;98418.30;;;19.23;71.62
65010;BME280;51556;50.002;22.014;2023-07-20T00:40:26;98421.16;;;19.21;71.43
65010;BME280;51556;50.002;22.014;2023-07-20T00:42:52;98423.66;;;19.16;71.61
65010;BME280;51556;50.002;22.014;2023-07-20T00:45:17;98418.65;;;19.16;71.58
65010;BME280;51556;50.002;22.014;2023-07-20T00:47:43;98419.80;;;19.18;71.57
65010;BME280;51556;50.002;22.014;2023-07-20T00:50:09;98416.31;;;19.16;71.48
65010;BME280;51556;50.002;22.014;2023-07-20T00:52:37;98415.13;;;19.16;71.69
65010;BME280;51556;50.002;22.014;2023-07-20T00:55:05;98416.24;;;19.15;71.69
65010;BME280;51556;50.002;22.014;2023-07-20T00:57:32;98418.02;;;19.13;71.63
65010;BME280;51556;50.002;22.014;2023-07-20T00:59:58;98414.87;;;19.10;71.79
65010;BME280;51556;50.002;22.014;2023-07-20T01:02:23;98407.73;;;19.12;71.82
65010;BME280;51556;50.002;22.014;2023-07-20T01:04:49;98407.61;;;19.16;71.81
65010;BME280;51556;50.002;22.014;2023-07-20T01:07:31;98406.61;;;19.17;71.79
65010;BME280;51556;50.002;22.014;2023-07-20T01:12:42;98403.04;;;19.11;71.91
65010;BME280;51556;50.002;22.014;2023-07-20T01:15:09;98407.21;;;19.10;72.14
65010;BME280;51556;50.002;22.014;2023-07-20T01:17:35;98406.59;;;19.08;72.19
65010;BME280;51556;50.002;22.014;2023-07-20T01:20:01;98407.52;;;19.05;72.09
65010;BME280;51556;50.002;22.014;2023-07-20T01:33:21;98418.85;;;18.99;72.75
65010;BME280;51556;50.002;22.014;2023-07-20T01:35:54;98421.19;;;18.97;72.81
65010;BME280;51556;50.002;22.014;2023-07-20T01:38:21;98422.85;;;18.94;72.98
65010;BME280;51556;50.002;22.014;2023-07-20T01:40:47;98429.93;;;18.92;73.19
65010;BME280;51556;50.002;22.014;2023-07-20T01:43:12;98433.70;;;18.92;73.43
65010;BME280;51556;50.002;22.014;2023-07-20T01:45:38;98446.20;;;18.89;73.65
65010;BME280;51556;50.002;22.014;2023-07-20T01:48:03;98453.86;;;18.87;73.82
65010;BME280;51556;50.002;22.014;2023-07-20T01:50:29;98449.72;;;18.83;74.12
65010;BME280;51556;50.002;22.014;2023-07-20T01:52:54;98437.14;;;18.82;73.90
65010;BME280;51556;50.002;22.014;2023-07-20T01:55:20;98436.77;;;18.84;73.80
65010;BME280;51556;50.002;22.014;2023-07-20T01:57:45;98434.68;;;18.88;73.79
65010;BME280;51556;50.002;22.014;2023-07-20T02:00:11;98431.20;;;18.92;73.76
65010;BME280;51556;50.002;22.014;2023-07-20T02:02:37;98427.39;;;18.95;73.69
65010;BME280;51556;50.002;22.014;2023-07-20T02:05:02;98418.70;;;19.01;73.50
65010;BME280;51556;50.002;22.014;2023-07-20T02:07:28;98413.23;;;19.08;73.37
65010;BME280;51556;50.002;22.014;2023-07-20T02:09:53;98407.25;;;19.14;73.22
65010;BME280;51556;50.002;22.014;2023-07-20T02:12:19;98403.69;;;19.21;73.08
65010;BME280;51556;50.002;22.014;2023-07-20T02:14:44;98398.22;;;19.27;72.74
65010;BME280;51556;50.002;22.014;2023-07-20T02:17:10;98410.07;;;19.28;72.54
65010;BME280;51556;50.002;22.014;2023-07-20T02:19:37;98410.94;;;19.26;72.56
65010;BME280;51556;50.002;22.014;2023-07-20T02:22:02;98411.35;;;19.21;72.55
65010;BME280;51556;50.002;22.014;2023-07-20T02:24:28;98417.98;;;19.16;72.62
65010;BME280;51556;50.002;22.014;2023-07-20T02:26:53;98414.21;;;19.14;72.54
65010;BME280;51556;50.002;22.014;2023-07-20T02:29:19;98412.29;;;19.08;72.66
65010;BME280;51556;50.002;22.014;2023-07-20T02:31:44;98408.14;;;19.02;72.87
65010;BME280;51556;50.002;22.014;2023-07-20T02:34:10;98399.74;;;18.99;72.87
65010;BME280;51556;50.002;22.014;2023-07-20T02:36:35;98396.77;;;19.06;72.80
65010;BME280;51556;50.002;22.014;2023-07-20T02:39:01;98396.14;;;19.08;72.54
65010;BME280;51556;50.002;22.014;2023-07-20T02:41:30;98398.22;;;19.06;72.63
65010;BME280;51556;50.002;22.014;2023-07-20T02:43:55;98395.52;;;19.04;72.57
65010;BME280;51556;50.002;22.014;2023-07-20T02:46:22;98394.04;;;19.02;72.58
65010;BME280;51556;50.002;22.014;2023-07-20T02:48:47;98391.84;;;19.05;72.58
65010;BME280;51556;50.002;22.014;2023-07-20T02:51:13;98391.00;;;19.07;72.36
65010;BME280;51556;50.002;22.014;2023-07-20T02:53:38;98389.20;;;19.07;72.23
65010;BME280;51556;50.002;22.014;2023-07-20T02:56:04;98384.86;;;19.05;72.13
65010;BME280;51556;50.002;22.014;2023-07-20T02:58:29;98383.92;;;19.06;72.20
65010;BME280;51556;50.002;22.014;2023-07-20T03:00:54;98383.70;;;19.07;71.93
65010;BME280;51556;50.002;22.014;2023-07-20T03:03:20;98378.66;;;19.05;71.94
65010;BME280;51556;50.002;22.014;2023-07-20T03:05:45;98380.55;;;19.03;71.94
65010;BME280;51556;50.002;22.014;2023-07-20T03:08:11;98383.88;;;19.02;71.94
65010;BME280;51556;50.002;22.014;2023-07-20T03:10:40;98386.55;;;18.95;71.92
65010;BME280;51556;50.002;22.014;2023-07-20T03:13:06;98388.45;;;18.86;72.07
65010;BME280;51556;50.002;22.014;2023-07-20T03:15:32;98393.52;;;18.83;72.24
65010;BME280;51556;50.002;22.014;2023-07-20T03:17:57;98396.08;;;18.82;72.44
65010;BME280;51556;50.002;22.014;2023-07-20T03:20:24;98394.98;;;18.78;72.41
65010;BME280;51556;50.002;22.014;2023-07-20T03:22:49;98395.94;;;18.72;72.73
65010;BME280;51556;50.002;22.014;2023-07-20T03:25:15;98397.75;;;18.69;72.81
65010;BME280;51556;50.002;22.014;2023-07-20T03:27:40;98398.40;;;18.65;72.92
65010;BME280;51556;50.002;22.014;2023-07-20T03:30:06;98398.29;;;18.66;72.90
65010;BME280;51556;50.002;22.014;2023-07-20T03:32:32;98398.31;;;18.66;72.97
65010;BME280;51556;50.002;22.014;2023-07-20T03:34:58;98399.48;;;18.67;72.92
65010;BME280;51556;50.002;22.014;2023-07-20T03:37:23;98404.84;;;18.67;72.87
65010;BME280;51556;50.002;22.014;2023-07-20T03:39:49;98404.13;;;18.69;73.01
65010;BME280;51556;50.002;22.014;2023-07-20T03:42:14;98405.23;;;18.74;73.09
65010;BME280;51556;50.002;22.014;2023-07-20T03:44:40;98402.94;;;18.74;73.06
65010;BME280;51556;50.002;22.014;2023-07-20T03:47:05;98401.52;;;18.74;72.96
65010;BME280;51556;50.002;22.014;2023-07-20T03:49:31;98403.48;;;18.74;73.13
65010;BME280;51556;50.002;22.014;2023-07-20T03:51:57;98410.33;;;18.68;73.37
65010;BME280;51556;50.002;22.014;2023-07-20T03:54:22;98418.90;;;18.62;73.52
65010;BME280;51556;50.002;22.014;2023-07-20T03:56:48;98420.59;;;18.61;73.77
65010;BME280;51556;50.002;22.014;2023-07-20T03:59:13;98419.81;;;18.60;73.89
65010;BME280;51556;50.002;22.014;2023-07-20T04:01:39;98422.95;;;18.61;74.17
65010;BME280;51556;50.002;22.014;2023-07-20T04:04:07;98422.97;;;18.61;74.36
65010;BME280;51556;50.002;22.014;2023-07-20T04:06:33;98416.80;;;18.64;74.62
65010;BME280;51556;50.002;22.014;2023-07-20T04:08:58;98413.19;;;18.73;74.57
65010;BME280;51556;50.002;22.014;2023-07-20T04:11:24;98423.13;;;18.81;74.37
65010;BME280;51556;50.002;22.014;2023-07-20T04:13:49;98432.21;;;18.90;74.32
65010;BME280;51556;50.002;22.014;2023-07-20T04:16:14;98431.27;;;19.00;74.29
65010;BME280;51556;50.002;22.014;2023-07-20T04:18:40;98435.34;;;19.08;74.15
65010;BME280;51556;50.002;22.014;2023-07-20T04:21:07;98437.70;;;19.15;74.14
65010;BME280;51556;50.002;22.014;2023-07-20T04:23:33;98444.72;;;19.23;74.22
65010;BME280;51556;50.002;22.014;2023-07-20T04:26:00;98457.65;;;19.27;73.86
65010;BME280;51556;50.002;22.014;2023-07-20T04:28:25;98475.71;;;19.28;73.63
65010;BME280;51556;50.002;22.014;2023-07-20T04:30:52;98490.97;;;19.34;73.52
65010;BME280;51556;50.002;22.014;2023-07-20T04:33:18;98499.03;;;19.36;73.28
65010;BME280;51556;50.002;22.014;2023-07-20T04:35:51;98508.24;;;19.34;73.35
65010;BME280;51556;50.002;22.014;2023-07-20T04:38:18;98526.87;;;19.27;73.43
65010;BME280;51556;50.002;22.014;2023-07-20T04:40:49;98537.20;;;19.20;73.91
65010;BME280;51556;50.002;22.014;2023-07-20T04:43:16;98535.52;;;19.09;74.20
65010;BME280;51556;50.002;22.014;2023-07-20T04:45:41;98541.73;;;19.02;74.45
65010;BME280;51556;50.002;22.014;2023-07-20T04:48:09;98550.58;;;18.96;75.43
65010;BME280;51556;50.002;22.014;2023-07-20T04:50:37;98551.23;;;18.89;75.66
65010;BME280;51556;50.002;22.014;2023-07-20T04:53:02;98547.08;;;18.88;75.96
65010;BME280;51556;50.002;22.014;2023-07-20T04:55:28;98540.41;;;18.88;76.13
65010;BME280;51556;50.002;22.014;2023-07-20T04:57:53;98527.84;;;18.94;77.06
65010;BME280;51556;50.002;22.014;2023-07-20T05:00:19;98514.84;;;18.99;76.90
65010;BME280;51556;50.002;22.014;2023-07-20T05:02:45;98496.21;;;19.02;77.08
65010;BME280;51556;50.002;22.014;2023-07-20T05:05:12;98466.66;;;19.06;76.66
65010;BME280;51556;50.002;22.014;2023-07-20T05:07:38;98473.15;;;19.10;76.63
65010;BME280;51556;50.002;22.014;2023-07-20T05:10:04;98491.74;;;19.10;76.33
65010;BME280;51556;50.002;22.014;2023-07-20T05:12:29;98513.00;;;19.07;76.40
65010;BME280;51556;50.002;22.014;2023-07-20T05:14:55;98526.08;;;19.06;76.50
65010;BME280;51556;50.002;22.014;2023-07-20T05:17:20;98533.64;;;19.08;76.51
65010;BME280;51556;50.002;22.014;2023-07-20T05:19:46;98537.95;;;19.12;76.68
65010;BME280;51556;50.002;22.014;2023-07-20T05:22:13;98536.70;;;19.12;76.44
65010;BME280;51556;50.002;22.014;2023-07-20T05:24:38;98547.48;;;19.08;76.51
65010;BME280;51556;50.002;22.014;2023-07-20T05:27:04;98561.34;;;18.97;76.03
65010;BME280;51556;50.002;22.014;2023-07-20T05:29:30;98568.39;;;18.91;76.14
65010;BME280;51556;50.002;22.014;2023-07-20T05:31:55;98564.08;;;18.87;76.32
65010;BME280;51556;50.002;22.014;2023-07-20T05:34:20;98565.79;;;18.88;76.29
65010;BME280;51556;50.002;22.014;2023-07-20T05:36:46;98569.73;;;18.90;76.52
65010;BME280;51556;50.002;22.014;2023-07-20T05:39:11;98588.98;;;18.85;76.37
65010;BME280;51556;50.002;22.014;2023-07-20T05:41:37;98577.70;;;18.78;76.23
65010;BME280;51556;50.002;22.014;2023-07-20T05:44:02;98547.85;;;18.74;76.14
65010;BME280;51556;50.002;22.014;2023-07-20T05:46:28;98545.20;;;18.71;76.45
65010;BME280;51556;50.002;22.014;2023-07-20T05:48:53;98548.71;;;18.69;76.44
65010;BME280;51556;50.002;22.014;2023-07-20T05:51:18;98557.99;;;18.69;76.43
65010;BME280;51556;50.002;22.014;2023-07-20T05:53:44;98561.29;;;18.71;76.32
65010;BME280;51556;50.002;22.014;2023-07-20T05:56:09;98553.03;;;18.74;76.42
65010;BME280;51556;50.002;22.014;2023-07-20T05:58:36;98554.60;;;18.80;76.49
65010;BME280;51556;50.002;22.014;2023-07-20T06:01:01;98563.20;;;18.82;76.30
65010;BME280;51556;50.002;22.014;2023-07-20T06:03:27;98569.84;;;18.79;76.15
65010;BME280;51556;50.002;22.014;2023-07-20T06:05:59;98577.63;;;18.77;76.12
65010;BME280;51556;50.002;22.014;2023-07-20T06:08:24;98600.76;;;18.75;76.10
65010;BME280;51556;50.002;22.014;2023-07-20T06:10:50;98604.91;;;18.72;76.12
65010;BME280;51556;50.002;22.014;2023-07-20T06:13:17;98581.39;;;18.74;76.17
65010;BME280;51556;50.002;22.014;2023-07-20T06:15:42;98584.96;;;18.79;76.33
65010;BME280;51556;50.002;22.014;2023-07-20T06:18:08;98586.89;;;18.85;76.18
65010;BME280;51556;50.002;22.014;2023-07-20T06:20:34;98587.87;;;18.88;75.96
65010;BME280;51556;50.002;22.014;2023-07-20T06:22:59;98589.14;;;18.95;76.34
65010;BME280;51556;50.002;22.014;2023-07-20T06:25:25;98590.44;;;19.04;76.72
65010;BME280;51556;50.002;22.014;2023-07-20T06:27:51;98581.46;;;19.12;77.01
65010;BME280;51556;50.002;22.014;2023-07-20T06:30:17;98575.55;;;19.20;77.15
65010;BME280;51556;50.002;22.014;2023-07-20T06:32:43;98581.59;;;19.25;76.98
65010;BME280;51556;50.002;22.014;2023-07-20T06:35:08;98598.02;;;19.27;76.89
65010;BME280;51556;50.002;22.014;2023-07-20T06:37:35;98611.14;;;19.28;76.24
65010;BME280;51556;50.002;22.014;2023-07-20T06:40:02;98601.69;;;19.26;76.41
65010;BME280;51556;50.002;22.014;2023-07-20T06:42:28;98584.17;;;19.26;76.85
65010;BME280;51556;50.002;22.014;2023-07-20T06:44:54;98571.20;;;19.32;77.21
65010;BME280;51556;50.002;22.014;2023-07-20T06:47:20;98557.20;;;19.41;77.43
65010;BME280;51556;50.002;22.014;2023-07-20T06:49:45;98567.65;;;19.47;76.93
65010;BME280;51556;50.002;22.014;2023-07-20T06:52:11;98571.80;;;19.52;76.35
65010;BME280;51556;50.002;22.014;2023-07-20T06:54:36;98570.98;;;19.55;77.18
65010;BME280;51556;50.002;22.014;2023-07-20T06:57:01;98600.39;;;19.61;77.20
65010;BME280;51556;50.002;22.014;2023-07-20T06:59:27;98604.70;;;19.58;76.37
65010;BME280;51556;50.002;22.014;2023-07-20T07:01:52;98603.64;;;19.56;76.50
65010;BME280;51556;50.002;22.014;2023-07-20T07:04:18;98624.44;;;19.57;76.35
65010;BME280;51556;50.002;22.014;2023-07-20T07:06:43;98633.07;;;19.53;75.82
65010;BME280;51556;50.002;22.014;2023-07-20T07:09:09;98643.25;;;19.46;75.10
65010;BME280;51556;50.002;22.014;2023-07-20T07:11:35;98643.17;;;19.25;74.75
65010;BME280;51556;50.002;22.014;2023-07-20T07:14:00;98634.23;;;19.13;74.61
65010;BME280;51556;50.002;22.014;2023-07-20T07:16:26;98632.91;;;19.11;75.25
65010;BME280;51556;50.002;22.014;2023-07-20T07:18:51;98616.45;;;19.17;75.80
65010;BME280;51556;50.002;22.014;2023-07-20T07:21:17;98639.75;;;19.20;75.85
65010;BME280;51556;50.002;22.014;2023-07-20T07:23:43;98642.61;;;19.20;75.19
65010;BME280;51556;50.002;22.014;2023-07-20T07:26:11;98653.52;;;19.20;75.23
65010;BME280;51556;50.002;22.014;2023-07-20T07:28:37;98665.14;;;19.09;75.02
65010;BME280;51556;50.002;22.014;2023-07-20T07:31:06;98671.98;;;18.94;74.85
65010;BME280;51556;50.002;22.014;2023-07-20T07:33:32;98673.63;;;18.88;74.75
65010;BME280;51556;50.002;22.014;2023-07-20T07:35:57;98672.73;;;18.83;75.01
65010;BME280;51556;50.002;22.014;2023-07-20T07:38:23;98663.79;;;18.84;75.10
65010;BME280;51556;50.002;22.014;2023-07-20T07:40:48;98667.81;;;18.82;75.64
65010;BME280;51556;50.002;22.014;2023-07-20T07:43:14;98673.18;;;18.85;75.90
65010;BME280;51556;50.002;22.014;2023-07-20T07:45:40;98676.98;;;18.81;75.97
65010;BME280;51556;50.002;22.014;2023-07-20T07:48:06;98679.65;;;18.74;76.08
65010;BME280;51556;50.002;22.014;2023-07-20T07:50:33;98683.36;;;18.71;76.15
65010;BME280;51556;50.002;22.014;2023-07-20T07:52:59;98676.11;;;18.65;76.19
65010;BME280;51556;50.002;22.014;2023-07-20T07:55:24;98665.77;;;18.62;76.21
65010;BME280;51556;50.002;22.014;2023-07-20T07:57:52;98649.91;;;18.68;76.14
65010;BME280;51556;50.002;22.014;2023-07-20T08:00:18;98649.90;;;18.76;76.10
65010;BME280;51556;50.002;22.014;2023-07-20T08:02:44;98636.35;;;18.76;76.05
65010;BME280;51556;50.002;22.014;2023-07-20T08:05:11;98630.07;;;18.77;76.15
65010;BME280;51556;50.002;22.014;2023-07-20T08:07:37;98634.98;;;18.80;76.17
65010;BME280;51556;50.002;22.014;2023-07-20T08:10:12;98662.05;;;18.83;76.25
65010;BME280;51556;50.002;22.014;2023-07-20T08:12:37;98670.91;;;18.68;76.21
65010;BME280;51556;50.002;22.014;2023-07-20T08:15:03;98667.09;;;18.51;76.63
65010;BME280;51556;50.002;22.014;2023-07-20T08:17:29;98667.70;;;18.45;77.19
65010;BME280;51556;50.002;22.014;2023-07-20T08:19:54;98677.23;;;18.38;77.64
65010;BME280;51556;50.002;22.014;2023-07-20T08:22:20;98664.39;;;18.36;78.10
65010;BME280;51556;50.002;22.014;2023-07-20T08:24:46;98655.23;;;18.42;77.90
65010;BME280;51556;50.002;22.014;2023-07-20T08:27:11;98649.27;;;18.51;77.62
65010;BME280;51556;50.002;22.014;2023-07-20T08:29:37;98663.96;;;18.58;77.58
65010;BME280;51556;50.002;22.014;2023-07-20T08:32:03;98674.62;;;18.66;77.17
65010;BME280;51556;50.002;22.014;2023-07-20T08:34:29;98673.02;;;18.76;77.17
65010;BME280;51556;50.002;22.014;2023-07-20T08:36:55;98670.27;;;18.83;77.11
65010;BME280;51556;50.002;22.014;2023-07-20T08:39:21;98670.98;;;18.90;76.89
65010;BME280;51556;50.002;22.014;2023-07-20T08:41:48;98676.27;;;18.89;75.66
65010;BME280;51556;50.002;22.014;2023-07-20T08:44:14;98679.90;;;18.90;76.28
65010;BME280;51556;50.002;22.014;2023-07-20T08:46:40;98690.58;;;18.98;76.08
65010;BME280;51556;50.002;22.014;2023-07-20T08:49:06;98695.70;;;19.07;75.15
65010;BME280;51556;50.002;22.014;2023-07-20T08:51:33;98702.02;;;19.08;73.41
65010;BME280;51556;50.002;22.014;2023-07-20T08:54:00;98694.84;;;19.01;73.37
65010;BME280;51556;50.002;22.014;2023-07-20T08:56:26;98699.09;;;19.01;73.41
65010;BME280;51556;50.002;22.014;2023-07-20T08:58:53;98704.48;;;19.03;73.19
65010;BME280;51556;50.002;22.014;2023-07-20T09:01:20;98713.30;;;19.12;73.40
65010;BME280;51556;50.002;22.014;2023-07-20T09:03:46;98714.23;;;19.22;73.01
65010;BME280;51556;50.002;22.014;2023-07-20T09:06:14;98708.05;;;19.33;73.49
65010;BME280;51556;50.002;22.014;2023-07-20T09:08:40;98704.96;;;19.44;73.35
65010;BME280;51556;50.002;22.014;2023-07-20T09:11:06;98700.60;;;19.55;73.34
65010;BME280;51556;50.002;22.014;2023-07-20T09:13:33;98706.56;;;19.62;72.64
65010;BME280;51556;50.002;22.014;2023-07-20T09:15:59;98705.17;;;19.70;72.70
65010;BME280;51556;50.002;22.014;2023-07-20T09:18:30;98705.46;;;19.79;72.89
65010;BME280;51556;50.002;22.014;2023-07-20T09:21:00;98703.44;;;19.80;71.46
65010;BME280;51556;50.002;22.014;2023-07-20T09:23:37;98705.68;;;19.64;71.35
65010;BME280;51556;50.002;22.014;2023-07-20T09:26:10;98700.31;;;19.57;70.16
65010;BME280;51556;50.002;22.014;2023-07-20T09:28:47;98701.92;;;19.59;71.55
65010;BME280;51556;50.002;22.014;2023-07-20T09:31:17;98704.63;;;19.76;71.88
65010;BME280;51556;50.002;22.014;2023-07-20T09:33:44;98705.29;;;19.86;71.57
65010;BME280;51556;50.002;22.014;2023-07-20T09:36:10;98706.84;;;19.96;70.57
65010;BME280;51556;50.002;22.014;2023-07-20T09:38:44;98706.91;;;20.05;70.59
65010;BME280;51556;50.002;22.014;2023-07-20T09:41:14;98708.75;;;20.16;70.37
65010;BME280;51556;50.002;22.014;2023-07-20T09:43:45;98710.70;;;20.21;68.54
65010;BME280;51556;50.002;22.014;2023-07-20T09:46:10;98714.64;;;20.28;69.51
65010;BME280;51556;50.002;22.014;2023-07-20T09:48:36;98709.56;;;20.48;69.40
65010;BME280;51556;50.002;22.014;2023-07-20T09:51:02;98709.81;;;20.63;68.08
65010;BME280;51556;50.002;22.014;2023-07-20T09:53:28;98710.65;;;20.78;67.51
65010;BME280;51556;50.002;22.014;2023-07-20T09:55:55;98707.05;;;20.90;67.67
65010;BME280;51556;50.002;22.014;2023-07-20T09:58:21;98704.77;;;21.07;67.04
65010;BME280;51556;50.002;22.014;2023-07-20T10:00:48;98706.02;;;21.21;66.01
65010;BME280;51556;50.002;22.014;2023-07-20T10:03:21;98706.77;;;21.32;65.63
65010;BME280;51556;50.002;22.014;2023-07-20T10:06:15;98703.38;;;21.48;65.14
65010;BME280;51556;50.002;22.014;2023-07-20T10:08:42;98708.31;;;21.44;62.99
65010;BME280;51556;50.002;22.014;2023-07-20T10:11:10;98702.95;;;21.44;63.75
65010;BME280;51556;50.002;22.014;2023-07-20T10:13:38;98708.64;;;21.47;64.64
65010;BME280;51556;50.002;22.014;2023-07-20T10:16:11;98715.80;;;21.62;64.74
65010;BME280;51556;50.002;22.014;2023-07-20T10:19:11;98709.73;;;21.79;63.54
65010;BME280;51556;50.002;22.014;2023-07-20T10:21:43;98710.56;;;22.06;63.39
65010;BME280;51556;50.002;22.014;2023-07-20T10:24:11;98711.61;;;22.20;62.18
65010;BME280;51556;50.002;22.014;2023-07-20T10:26:37;98715.84;;;22.31;60.88
65010;BME280;51556;50.002;22.014;2023-07-20T10:29:03;98713.24;;;22.34;60.50
65010;BME280;51556;50.002;22.014;2023-07-20T10:31:30;98714.91;;;22.40;61.30
65010;BME280;51556;50.002;22.014;2023-07-20T10:33:59;98712.59;;;22.46;60.98
65010;BME280;51556;50.002;22.014;2023-07-20T10:36:26;98710.15;;;22.49;60.81
65010;BME280;51556;50.002;22.014;2023-07-20T10:38:56;98711.25;;;22.53;60.62
65010;BME280;51556;50.002;22.014;2023-07-20T10:43:49;98711.66;;;22.51;59.29
65010;BME280;51556;50.002;22.014;2023-07-20T10:46:43;98717.27;;;22.60;59.42
65010;BME280;51556;50.002;22.014;2023-07-20T10:49:10;98716.10;;;22.74;59.04
65010;BME280;51556;50.002;22.014;2023-07-20T10:51:47;98717.72;;;22.89;59.39
65010;BME280;51556;50.002;22.014;2023-07-20T10:56:40;98711.55;;;23.08;54.15
65010;BME280;51556;50.002;22.014;2023-07-20T11:01:48;98703.02;;;23.11;56.65
65010;BME280;51556;50.002;22.014;2023-07-20T11:04:17;98699.05;;;23.18;56.48
65010;BME280;51556;50.002;22.014;2023-07-20T11:06:46;98691.23;;;23.31;57.05
65010;BME280;51556;50.002;22.014;2023-07-20T11:09:22;98690.05;;;23.45;56.79
65010;BME280;51556;50.002;22.014;2023-07-20T11:12:20;98685.64;;;23.62;56.08
65010;BME280;51556;50.002;22.014;2023-07-20T11:14:59;98684.27;;;23.79;54.89
65010;BME280;51556;50.002;22.014;2023-07-20T11:17:30;98672.69;;;23.95;54.18
65010;BME280;51556;50.002;22.014;2023-07-20T11:19:56;98669.83;;;24.09;54.80
65010;BME280;51556;50.002;22.014;2023-07-20T11:22:22;98662.52;;;24.24;54.39
65010;BME280;51556;50.002;22.014;2023-07-20T11:24:48;98661.95;;;24.34;53.86
65010;BME280;51556;50.002;22.014;2023-07-20T11:27:14;98658.79;;;24.47;54.18
65010;BME280;51556;50.002;22.014;2023-07-20T11:29:40;98652.23;;;24.68;54.50
65010;BME280;51556;50.002;22.014;2023-07-20T11:32:06;98648.83;;;24.83;52.36
65010;BME280;51556;50.002;22.014;2023-07-20T11:34:33;98649.64;;;24.95;53.20
65010;BME280;51556;50.002;22.014;2023-07-20T11:36:58;98650.23;;;25.12;51.68
65010;BME280;51556;50.002;22.014;2023-07-20T11:39:24;98643.53;;;25.29;50.86
65010;BME280;51556;50.002;22.014;2023-07-20T11:41:55;98642.48;;;25.42;48.77
65010;BME280;51556;50.002;22.014;2023-07-20T11:44:22;98637.36;;;25.46;48.67
65010;BME280;51556;50.002;22.014;2023-07-20T11:47:02;98637.36;;;25.64;49.30
65010;BME280;51556;50.002;22.014;2023-07-20T11:49:29;98640.80;;;25.89;49.04
65010;BME280;51556;50.002;22.014;2023-07-20T11:51:55;98641.64;;;26.08;46.50
65010;BME280;51556;50.002;22.014;2023-07-20T11:54:21;98634.46;;;26.09;45.01
65010;BME280;51556;50.002;22.014;2023-07-20T11:56:48;98632.88;;;26.04;45.90
65010;BME280;51556;50.002;22.014;2023-07-20T11:59:13;98631.60;;;26.11;46.14
65010;BME280;51556;50.002;22.014;2023-07-20T12:01:39;98633.95;;;26.20;45.62
65010;BME280;51556;50.002;22.014;2023-07-20T12:04:05;98642.09;;;25.96;43.31
65010;BME280;51556;50.002;22.014;2023-07-20T12:06:34;98635.32;;;25.95;43.84
65010;BME280;51556;50.002;22.014;2023-07-20T12:09:00;98632.73;;;25.87;43.77
65010;BME280;51556;50.002;22.014;2023-07-20T12:11:32;98627.94;;;25.76;44.31
65010;BME280;51556;50.002;22.014;2023-07-20T12:13:58;98633.98;;;25.71;44.88
65010;BME280;51556;50.002;22.014;2023-07-20T12:16:27;98637.52;;;25.64;44.71
65010;BME280;51556;50.002;22.014;2023-07-20T12:19:19;98634.67;;;25.66;45.46
65010;BME280;51556;50.002;22.014;2023-07-20T12:21:45;98622.33;;;25.88;45.72
65010;BME280;51556;50.002;22.014;2023-07-20T12:24:11;98623.02;;;26.01;44.85
65010;BME280;51556;50.002;22.014;2023-07-20T12:26:36;98630.05;;;26.08;43.58
65010;BME280;51556;50.002;22.014;2023-07-20T12:29:02;98625.11;;;26.07;43.73
65010;BME280;51556;50.002;22.014;2023-07-20T12:31:34;98626.88;;;26.25;45.02
65010;BME280;51556;50.002;22.014;2023-07-20T12:34:01;98631.80;;;26.49;44.43
65010;BME280;51556;50.002;22.014;2023-07-20T12:36:27;98628.39;;;26.60;43.74
65010;BME280;51556;50.002;22.014;2023-07-20T12:38:52;98629.77;;;26.68;43.09
65010;BME280;51556;50.002;22.014;2023-07-20T12:41:18;98628.43;;;26.65;42.60
65010;BME280;51556;50.002;22.014;2023-07-20T12:43:45;98632.04;;;26.73;42.52
65010;BME280;51556;50.002;22.014;2023-07-20T12:46:12;98627.72;;;26.63;41.40
65010;BME280;51556;50.002;22.014;2023-07-20T12:48:38;98626.56;;;26.55;42.50
65010;BME280;51556;50.002;22.014;2023-07-20T12:51:06;98625.48;;;26.44;42.85
65010;BME280;51556;50.002;22.014;2023-07-20T12:53:32;98620.63;;;26.49;42.92
65010;BME280;51556;50.002;22.014;2023-07-20T12:55:59;98615.79;;;26.46;42.14
65010;BME280;51556;50.002;22.014;2023-07-20T12:58:25;98613.05;;;26.53;43.41
65010;BME280;51556;50.002;22.014;2023-07-20T13:00:51;98612.21;;;26.77;43.01
65010;BME280;51556;50.002;22.014;2023-07-20T13:03:18;98609.14;;;26.99;42.80
65010;BME280;51556;50.002;22.014;2023-07-20T13:05:47;98603.91;;;27.24;42.66
65010;BME280;51556;50.002;22.014;2023-07-20T13:08:14;98605.02;;;27.55;43.09
65010;BME280;51556;50.002;22.014;2023-07-20T13:10:39;98608.08;;;27.73;40.68